sensor_id;sensor_type;location;lat;lon;timestamp;temperature;humidity
8188;DHT22;4135;49.184;9.722;2023-04-03T00:01:45;22.00;44.30
8188;DHT22;4135;49.184;9.722;2023-04-03T00:04:14;22.00;44.40
8188;DHT22;4135;49.184;9.722;2023-04-03T00:06:44;21.90;44.30
8188;DHT22;4135;49.184;9.722;2023-04-03T00:09:14;21.90;44.40
8188;DHT22;4135;49.184;9.722;2023-04-03T00:11:43;21.90;44.40
8188;DHT22;4135;49.184;9.722;2023-04-03T00:14:13;21.90;44.40
8188;DHT22;4135;49.184;9.722;2023-04-03T00:16:42;21.90;44.40
8188;DHT22;4135;49.184;9.722;2023-04-03T00:19:12;21.90;44.50
8188;DHT22;4135;49.184;9.722;2023-04-03T00:21:41;21.90;44.50
8188;DHT22;4135;49.184;9.722;2023-04-03T00:24:11;21.90;44.50
8188;DHT22;4135;49.184;9.722;2023-04-03T00:26:41;21.90;44.50
8188;DHT22;4135;49.184;9.722;2023-04-03T00:29:10;21.90;44.50
8188;DHT22;4135;49.184;9.722;2023-04-03T00:31:40;21.80;44.50
8188;DHT22;4135;49.184;9.722;2023-04-03T00:34:09;21.80;44.50
8188;DHT22;4135;49.184;9.722;2023-04-03T00:36:39;21.80;45.10
8188;DHT22;4135;49.184;9.722;2023-04-03T00:39:08;21.80;44.50
8188;DHT22;4135;49.184;9.722;2023-04-03T00:41:38;21.80;44.50
8188;DHT22;4135;49.184;9.722;2023-04-03T00:44:22;21.80;44.50
8188;DHT22;4135;49.184;9.722;2023-04-03T00:47:13;21.80;44.50
8188;DHT22;4135;49.184;9.722;2023-04-03T00:49:44;21.70;44.50
8188;DHT22;4135;49.184;9.722;2023-04-03T00:52:17;21.70;44.50
8188;DHT22;4135;49.184;9.722;2023-04-03T00:54:50;21.70;44.50
8188;DHT22;4135;49.184;9.722;2023-04-03T00:57:22;21.70;44.50
8188;DHT22;4135;49.184;9.722;2023-04-03T00:59:55;21.70;44.60
8188;DHT22;4135;49.184;9.722;2023-04-03T01:02:26;21.70;44.60
8188;DHT22;4135;49.184;9.722;2023-04-03T01:04:56;21.70;44.60
8188;DHT22;4135;49.184;9.722;2023-04-03T01:07:29;21.70;44.60
8188;DHT22;4135;49.184;9.722;2023-04-03T01:10:06;21.70;44.60
8188;DHT22;4135;49.184;9.722;2023-04-03T01:12:39;21.60;44.50
8188;DHT22;4135;49.184;9.722;2023-04-03T01:15:12;21.60;44.50
8188;DHT22;4135;49.184;9.722;2023-04-03T01:17:57;21.60;44.50
8188;DHT22;4135;49.184;9.722;2023-04-03T01:23:17;21.60;44.50
8188;DHT22;4135;49.184;9.722;2023-04-03T01:25:56;21.60;44.60
8188;DHT22;4135;49.184;9.722;2023-04-03T01:28:29;21.70;44.60
8188;DHT22;4135;49.184;9.722;2023-04-03T01:31:10;21.60;44.60
8188;DHT22;4135;49.184;9.722;2023-04-03T01:33:42;21.60;44.60
8188;DHT22;4135;49.184;9.722;2023-04-03T01:36:21;21.60;44.60
8188;DHT22;4135;49.184;9.722;2023-04-03T01:38:52;21.60;44.60
8188;DHT22;4135;49.184;9.722;2023-04-03T01:41:22;21.60;44.60
8188;DHT22;4135;49.184;9.722;2023-04-03T01:43:52;21.60;44.60
8188;DHT22;4135;49.184;9.722;2023-04-03T01:46:22;21.60;44.60
8188;DHT22;4135;49.184;9.722;2023-04-03T01:48:51;21.60;44.60
8188;DHT22;4135;49.184;9.722;2023-04-03T01:51:21;21.50;44.60
8188;DHT22;4135;49.184;9.722;2023-04-03T01:53:51;21.50;44.60
8188;DHT22;4135;49.184;9.722;2023-04-03T01:56:21;21.50;44.60
8188;DHT22;4135;49.184;9.722;2023-04-03T01:58:51;21.50;44.60
8188;DHT22;4135;49.184;9.722;2023-04-03T02:01:20;21.50;44.60
8188;DHT22;4135;49.184;9.722;2023-04-03T02:03:50;21.50;44.60
8188;DHT22;4135;49.184;9.722;2023-04-03T02:06:20;21.50;44.60
8188;DHT22;4135;49.184;9.722;2023-04-03T02:08:49;21.50;44.60
8188;DHT22;4135;49.184;9.722;2023-04-03T02:11:19;21.50;44.60
8188;DHT22;4135;49.184;9.722;2023-04-03T02:13:49;21.50;44.60
8188;DHT22;4135;49.184;9.722;2023-04-03T02:16:19;21.50;44.60
8188;DHT22;4135;49.184;9.722;2023-04-03T02:18:48;21.50;44.60
8188;DHT22;4135;49.184;9.722;2023-04-03T02:21:18;21.50;44.60
8188;DHT22;4135;49.184;9.722;2023-04-03T02:23:47;21.40;44.60
8188;DHT22;4135;49.184;9.722;2023-04-03T02:26:17;21.40;44.60
8188;DHT22;4135;49.184;9.722;2023-04-03T02:28:46;21.40;44.60
8188;DHT22;4135;49.184;9.722;2023-04-03T02:31:16;21.40;44.60
8188;DHT22;4135;49.184;9.722;2023-04-03T02:33:45;21.40;44.60
8188;DHT22;4135;49.184;9.722;2023-04-03T02:36:15;21.40;44.60
8188;DHT22;4135;49.184;9.722;2023-04-03T02:38:45;21.40;44.70
8188;DHT22;4135;49.184;9.722;2023-04-03T02:41:14;21.40;44.60
8188;DHT22;4135;49.184;9.722;2023-04-03T02:43:44;21.40;44.60
8188;DHT22;4135;49.184;9.722;2023-04-03T02:46:13;21.40;44.60
8188;DHT22;4135;49.184;9.722;2023-04-03T02:48:44;21.40;44.60
8188;DHT22;4135;49.184;9.722;2023-04-03T02:51:14;21.40;44.60
8188;DHT22;4135;49.184;9.722;2023-04-03T02:53:43;21.30;44.60
8188;DHT22;4135;49.184;9.722;2023-04-03T02:56:13;21.30;44.60
8188;DHT22;4135;49.184;9.722;2023-04-03T02:58:43;21.40;44.70
8188;DHT22;4135;49.184;9.722;2023-04-03T03:01:12;21.30;44.60
8188;DHT22;4135;49.184;9.722;2023-04-03T03:03:42;21.30;44.60
8188;DHT22;4135;49.184;9.722;2023-04-03T03:06:14;21.30;44.60
8188;DHT22;4135;49.184;9.722;2023-04-03T03:08:44;21.30;44.60
8188;DHT22;4135;49.184;9.722;2023-04-03T03:11:14;21.30;44.60
8188;DHT22;4135;49.184;9.722;2023-04-03T03:13:44;21.30;45.20
8188;DHT22;4135;49.184;9.722;2023-04-03T03:16:14;21.30;44.60
8188;DHT22;4135;49.184;9.722;2023-04-03T03:18:44;21.30;44.60
8188;DHT22;4135;49.184;9.722;2023-04-03T03:21:14;21.30;44.60
8188;DHT22;4135;49.184;9.722;2023-04-03T03:23:43;21.30;44.60
8188;DHT22;4135;49.184;9.722;2023-04-03T03:26:13;21.20;44.60
8188;DHT22;4135;49.184;9.722;2023-04-03T03:28:43;21.20;44.60
8188;DHT22;4135;49.184;9.722;2023-04-03T03:31:12;21.30;44.70
8188;DHT22;4135;49.184;9.722;2023-04-03T03:33:42;21.30;44.70
8188;DHT22;4135;49.184;9.722;2023-04-03T03:36:11;21.20;44.60
8188;DHT22;4135;49.184;9.722;2023-04-03T03:38:41;21.20;44.60
8188;DHT22;4135;49.184;9.722;2023-04-03T03:41:10;21.20;44.60
8188;DHT22;4135;49.184;9.722;2023-04-03T03:43:40;21.30;44.70
8188;DHT22;4135;49.184;9.722;2023-04-03T03:46:09;21.20;44.60
8188;DHT22;4135;49.184;9.722;2023-04-03T03:48:39;21.20;44.70
8188;DHT22;4135;49.184;9.722;2023-04-03T03:51:08;21.20;44.70
8188;DHT22;4135;49.184;9.722;2023-04-03T03:53:38;21.20;44.70
8188;DHT22;4135;49.184;9.722;2023-04-03T03:56:07;21.20;44.70
8188;DHT22;4135;49.184;9.722;2023-04-03T03:58:37;21.20;44.70
8188;DHT22;4135;49.184;9.722;2023-04-03T04:01:07;21.20;44.80
8188;DHT22;4135;49.184;9.722;2023-04-03T04:03:36;21.20;44.80
8188;DHT22;4135;49.184;9.722;2023-04-03T04:06:06;21.20;44.80
8188;DHT22;4135;49.184;9.722;2023-04-03T04:08:36;21.20;44.70
8188;DHT22;4135;49.184;9.722;2023-04-03T04:11:05;21.20;44.70
8188;DHT22;4135;49.184;9.722;2023-04-03T04:13:35;21.20;44.80
8188;DHT22;4135;49.184;9.722;2023-04-03T04:16:05;21.10;44.70
8188;DHT22;4135;49.184;9.722;2023-04-03T04:18:35;21.10;44.70
8188;DHT22;4135;49.184;9.722;2023-04-03T04:21:04;21.10;44.70
8188;DHT22;4135;49.184;9.722;2023-04-03T04:23:34;21.10;44.70
8188;DHT22;4135;49.184;9.722;2023-04-03T04:26:03;21.10;44.70
8188;DHT22;4135;49.184;9.722;2023-04-03T04:28:33;21.10;44.70
8188;DHT22;4135;49.184;9.722;2023-04-03T04:31:02;21.10;44.70
8188;DHT22;4135;49.184;9.722;2023-04-03T04:33:32;21.10;44.70
8188;DHT22;4135;49.184;9.722;2023-04-03T04:36:02;21.10;44.70
8188;DHT22;4135;49.184;9.722;2023-04-03T04:38:31;21.10;44.70
8188;DHT22;4135;49.184;9.722;2023-04-03T04:41:01;21.10;44.70
8188;DHT22;4135;49.184;9.722;2023-04-03T04:43:30;21.10;44.80
8188;DHT22;4135;49.184;9.722;2023-04-03T04:46:02;21.10;44.80
8188;DHT22;4135;49.184;9.722;2023-04-03T04:48:31;21.10;44.80
8188;DHT22;4135;49.184;9.722;2023-04-03T04:51:01;21.10;44.90
8188;DHT22;4135;49.184;9.722;2023-04-03T04:53:31;21.10;44.90
8188;DHT22;4135;49.184;9.722;2023-04-03T04:56:00;21.10;44.90
8188;DHT22;4135;49.184;9.722;2023-04-03T04:58:30;21.10;44.90
8188;DHT22;4135;49.184;9.722;2023-04-03T05:01:01;21.20;44.90
8188;DHT22;4135;49.184;9.722;2023-04-03T05:03:31;21.10;45.40
8188;DHT22;4135;49.184;9.722;2023-04-03T05:06:01;21.10;44.80
8188;DHT22;4135;49.184;9.722;2023-04-03T05:08:30;21.10;44.80
8188;DHT22;4135;49.184;9.722;2023-04-03T05:11:00;21.10;44.80
8188;DHT22;4135;49.184;9.722;2023-04-03T05:13:29;21.20;44.90
8188;DHT22;4135;49.184;9.722;2023-04-03T05:15:59;21.10;44.90
8188;DHT22;4135;49.184;9.722;2023-04-03T05:18:28;21.20;45.00
8188;DHT22;4135;49.184;9.722;2023-04-03T05:20:58;21.10;44.90
8188;DHT22;4135;49.184;9.722;2023-04-03T05:23:28;21.10;44.90
8188;DHT22;4135;49.184;9.722;2023-04-03T05:25:57;21.10;44.90
8188;DHT22;4135;49.184;9.722;2023-04-03T05:28:27;21.10;44.90
8188;DHT22;4135;49.184;9.722;2023-04-03T05:30:57;21.10;44.80
8188;DHT22;4135;49.184;9.722;2023-04-03T05:33:27;21.10;44.80
8188;DHT22;4135;49.184;9.722;2023-04-03T05:36:02;21.10;44.80
8188;DHT22;4135;49.184;9.722;2023-04-03T05:38:33;21.10;44.80
8188;DHT22;4135;49.184;9.722;2023-04-03T05:41:02;21.10;44.80
8188;DHT22;4135;49.184;9.722;2023-04-03T05:43:32;21.20;44.90
8188;DHT22;4135;49.184;9.722;2023-04-03T05:46:02;21.20;44.90
8188;DHT22;4135;49.184;9.722;2023-04-03T05:48:32;21.20;45.00
8188;DHT22;4135;49.184;9.722;2023-04-03T05:51:01;21.30;45.10
8188;DHT22;4135;49.184;9.722;2023-04-03T05:53:34;21.20;45.10
8188;DHT22;4135;49.184;9.722;2023-04-03T05:56:05;21.20;45.10
8188;DHT22;4135;49.184;9.722;2023-04-03T05:58:35;21.20;45.20
8188;DHT22;4135;49.184;9.722;2023-04-03T06:01:04;21.20;45.20
8188;DHT22;4135;49.184;9.722;2023-04-03T06:03:34;21.10;45.00
8188;DHT22;4135;49.184;9.722;2023-04-03T06:06:04;21.10;44.90
8188;DHT22;4135;49.184;9.722;2023-04-03T06:08:34;21.10;44.90
8188;DHT22;4135;49.184;9.722;2023-04-03T06:11:04;21.10;44.90
8188;DHT22;4135;49.184;9.722;2023-04-03T06:13:34;21.20;45.00
8188;DHT22;4135;49.184;9.722;2023-04-03T06:16:05;21.20;44.90
8188;DHT22;4135;49.184;9.722;2023-04-03T06:18:34;21.20;44.90
8188;DHT22;4135;49.184;9.722;2023-04-03T06:21:04;21.20;44.90
8188;DHT22;4135;49.184;9.722;2023-04-03T06:23:34;21.20;44.90
8188;DHT22;4135;49.184;9.722;2023-04-03T06:26:04;21.40;45.10
8188;DHT22;4135;49.184;9.722;2023-04-03T06:28:34;21.30;45.00
8188;DHT22;4135;49.184;9.722;2023-04-03T06:31:04;21.20;45.00
8188;DHT22;4135;49.184;9.722;2023-04-03T06:33:34;21.20;45.10
8188;DHT22;4135;49.184;9.722;2023-04-03T06:36:04;21.30;45.20
8188;DHT22;4135;49.184;9.722;2023-04-03T06:38:35;21.30;45.20
8188;DHT22;4135;49.184;9.722;2023-04-03T06:41:04;21.30;45.30
8188;DHT22;4135;49.184;9.722;2023-04-03T06:43:34;21.30;45.30
8188;DHT22;4135;49.184;9.722;2023-04-03T06:46:04;21.30;45.40
8188;DHT22;4135;49.184;9.722;2023-04-03T06:48:34;21.30;45.40
8188;DHT22;4135;49.184;9.722;2023-04-03T06:51:03;21.30;45.50
8188;DHT22;4135;49.184;9.722;2023-04-03T06:53:33;21.30;45.50
8188;DHT22;4135;49.184;9.722;2023-04-03T06:56:03;21.30;45.50
8188;DHT22;4135;49.184;9.722;2023-04-03T06:58:33;21.30;45.50
8188;DHT22;4135;49.184;9.722;2023-04-03T07:01:02;21.80;45.90
8188;DHT22;4135;49.184;9.722;2023-04-03T07:03:32;21.40;45.60
8188;DHT22;4135;49.184;9.722;2023-04-03T07:06:02;21.40;45.60
8188;DHT22;4135;49.184;9.722;2023-04-03T07:08:32;21.30;45.50
8188;DHT22;4135;49.184;9.722;2023-04-03T07:11:02;21.40;45.70
8188;DHT22;4135;49.184;9.722;2023-04-03T07:13:32;21.40;45.70
8188;DHT22;4135;49.184;9.722;2023-04-03T07:16:02;21.40;45.70
8188;DHT22;4135;49.184;9.722;2023-04-03T07:18:34;21.40;45.70
8188;DHT22;4135;49.184;9.722;2023-04-03T07:21:04;21.50;45.70
8188;DHT22;4135;49.184;9.722;2023-04-03T07:23:34;21.40;45.60
8188;DHT22;4135;49.184;9.722;2023-04-03T07:26:03;21.40;45.70
8188;DHT22;4135;49.184;9.722;2023-04-03T07:28:33;21.40;45.70
8188;DHT22;4135;49.184;9.722;2023-04-03T07:31:05;21.40;45.70
8188;DHT22;4135;49.184;9.722;2023-04-03T07:33:37;21.50;45.70
8188;DHT22;4135;49.184;9.722;2023-04-03T07:36:08;21.40;45.70
8188;DHT22;4135;49.184;9.722;2023-04-03T07:38:37;21.50;45.70
8188;DHT22;4135;49.184;9.722;2023-04-03T07:41:12;21.40;45.70
8188;DHT22;4135;49.184;9.722;2023-04-03T07:43:43;21.40;45.70
8188;DHT22;4135;49.184;9.722;2023-04-03T07:46:12;21.40;45.70
8188;DHT22;4135;49.184;9.722;2023-04-03T07:48:42;21.40;45.70
8188;DHT22;4135;49.184;9.722;2023-04-03T07:51:12;21.40;45.60
8188;DHT22;4135;49.184;9.722;2023-04-03T07:53:42;21.40;45.50
8188;DHT22;4135;49.184;9.722;2023-04-03T07:56:11;21.40;45.40
8188;DHT22;4135;49.184;9.722;2023-04-03T07:58:41;21.40;45.30
8188;DHT22;4135;49.184;9.722;2023-04-03T08:01:10;21.40;45.30
8188;DHT22;4135;49.184;9.722;2023-04-03T08:03:40;21.40;45.20
8188;DHT22;4135;49.184;9.722;2023-04-03T08:06:09;21.50;45.20
8188;DHT22;4135;49.184;9.722;2023-04-03T08:08:39;21.50;45.20
8188;DHT22;4135;49.184;9.722;2023-04-03T08:11:10;21.40;45.00
8188;DHT22;4135;49.184;9.722;2023-04-03T08:13:39;21.40;45.00
8188;DHT22;4135;49.184;9.722;2023-04-03T08:16:13;21.40;44.90
8188;DHT22;4135;49.184;9.722;2023-04-03T08:18:45;21.40;44.90
8188;DHT22;4135;49.184;9.722;2023-04-03T08:21:14;21.40;44.90
8188;DHT22;4135;49.184;9.722;2023-04-03T08:23:44;21.40;44.80
8188;DHT22;4135;49.184;9.722;2023-04-03T08:26:15;21.40;44.70
8188;DHT22;4135;49.184;9.722;2023-04-03T08:28:45;21.40;44.60
8188;DHT22;4135;49.184;9.722;2023-04-03T08:31:17;21.40;44.60
8188;DHT22;4135;49.184;9.722;2023-04-03T08:33:47;21.40;44.50
8188;DHT22;4135;49.184;9.722;2023-04-03T08:36:23;21.50;44.50
8188;DHT22;4135;49.184;9.722;2023-04-03T08:38:54;21.40;44.30
8188;DHT22;4135;49.184;9.722;2023-04-03T08:41:34;21.40;44.10
8188;DHT22;4135;49.184;9.722;2023-04-03T08:49:59;21.40;43.90
8188;DHT22;4135;49.184;9.722;2023-04-03T08:55:22;21.40;43.70
8188;DHT22;4135;49.184;9.722;2023-04-03T08:58:19;21.30;43.50
8188;DHT22;4135;49.184;9.722;2023-04-03T09:00:57;21.40;43.50
8188;DHT22;4135;49.184;9.722;2023-04-03T09:03:34;21.40;43.40
8188;DHT22;4135;49.184;9.722;2023-04-03T09:12:21;21.40;43.30
8188;DHT22;4135;49.184;9.722;2023-04-03T09:20:46;21.50;43.90
8188;DHT22;4135;49.184;9.722;2023-04-03T09:26:53;21.50;44.30
8188;DHT22;4135;49.184;9.722;2023-04-03T09:29:19;21.60;44.50
8188;DHT22;4135;49.184;9.722;2023-04-03T09:31:56;21.60;44.50
8188;DHT22;4135;49.184;9.722;2023-04-03T09:34:37;21.60;44.50
8188;DHT22;4135;49.184;9.722;2023-04-03T09:37:07;21.60;44.40
8188;DHT22;4135;49.184;9.722;2023-04-03T09:39:52;22.00;44.70
8188;DHT22;4135;49.184;9.722;2023-04-03T09:42:24;21.50;44.20
8188;DHT22;4135;49.184;9.722;2023-04-03T09:44:56;21.60;44.20
8188;DHT22;4135;49.184;9.722;2023-04-03T09:47:27;21.50;44.10
8188;DHT22;4135;49.184;9.722;2023-04-03T09:52:44;21.50;44.00
8188;DHT22;4135;49.184;9.722;2023-04-03T09:57:46;21.50;43.90
8188;DHT22;4135;49.184;9.722;2023-04-03T10:00:27;21.50;43.80
8188;DHT22;4135;49.184;9.722;2023-04-03T10:02:58;21.50;43.70
8188;DHT22;4135;49.184;9.722;2023-04-03T10:05:38;21.60;43.70
8188;DHT22;4135;49.184;9.722;2023-04-03T10:10:43;21.50;43.40
8188;DHT22;4135;49.184;9.722;2023-04-03T10:13:18;21.50;43.30
8188;DHT22;4135;49.184;9.722;2023-04-03T10:16:01;21.50;43.30
8188;DHT22;4135;49.184;9.722;2023-04-03T10:18:49;21.50;43.30
8188;DHT22;4135;49.184;9.722;2023-04-03T10:21:46;21.50;43.30
8188;DHT22;4135;49.184;9.722;2023-04-03T10:24:23;21.50;43.40
8188;DHT22;4135;49.184;9.722;2023-04-03T10:26:57;21.50;43.60
8188;DHT22;4135;49.184;9.722;2023-04-03T10:35:08;21.50;43.90
8188;DHT22;4135;49.184;9.722;2023-04-03T10:41:01;21.50;44.10
8188;DHT22;4135;49.184;9.722;2023-04-03T10:46:45;21.50;44.10
8188;DHT22;4135;49.184;9.722;2023-04-03T10:49:48;21.50;44.20
8188;DHT22;4135;49.184;9.722;2023-04-03T10:52:28;21.60;44.40
8188;DHT22;4135;49.184;9.722;2023-04-03T10:57:43;21.60;44.40
8188;DHT22;4135;49.184;9.722;2023-04-03T11:00:22;21.60;44.50
8188;DHT22;4135;49.184;9.722;2023-04-03T11:02:54;21.60;44.50
8188;DHT22;4135;49.184;9.722;2023-04-03T11:05:36;21.60;44.60
8188;DHT22;4135;49.184;9.722;2023-04-03T11:08:21;21.60;44.60
8188;DHT22;4135;49.184;9.722;2023-04-03T11:10:57;21.60;44.60
8188;DHT22;4135;49.184;9.722;2023-04-03T11:13:34;21.60;44.60
8188;DHT22;4135;49.184;9.722;2023-04-03T11:16:05;21.60;44.70
8188;DHT22;4135;49.184;9.722;2023-04-03T11:18:44;21.60;44.90
8188;DHT22;4135;49.184;9.722;2023-04-03T11:21:37;21.60;45.00
8188;DHT22;4135;49.184;9.722;2023-04-03T11:24:20;21.60;45.30
8188;DHT22;4135;49.184;9.722;2023-04-03T11:26:52;21.70;45.50
8188;DHT22;4135;49.184;9.722;2023-04-03T11:29:27;21.70;45.60
8188;DHT22;4135;49.184;9.722;2023-04-03T11:32:13;21.70;45.70
8188;DHT22;4135;49.184;9.722;2023-04-03T11:34:52;21.70;45.60
8188;DHT22;4135;49.184;9.722;2023-04-03T11:37:34;21.60;45.40
8188;DHT22;4135;49.184;9.722;2023-04-03T11:40:22;21.60;45.30
8188;DHT22;4135;49.184;9.722;2023-04-03T11:45:49;21.60;45.00
8188;DHT22;4135;49.184;9.722;2023-04-03T11:57:43;21.60;44.80
8188;DHT22;4135;49.184;9.722;2023-04-03T12:19:36;21.40;44.20
8188;DHT22;4135;49.184;9.722;2023-04-03T12:22:12;21.40;44.10
8188;DHT22;4135;49.184;9.722;2023-04-03T12:24:46;21.40;43.90
8188;DHT22;4135;49.184;9.722;2023-04-03T12:27:25;21.40;43.80
8188;DHT22;4135;49.184;9.722;2023-04-03T12:35:28;21.40;43.40
8188;DHT22;4135;49.184;9.722;2023-04-03T12:44:20;21.40;43.10
8188;DHT22;4135;49.184;9.722;2023-04-03T12:46:53;21.40;43.00
8188;DHT22;4135;49.184;9.722;2023-04-03T12:49:38;21.40;42.90
8188;DHT22;4135;49.184;9.722;2023-04-03T12:52:30;21.40;42.90
8188;DHT22;4135;49.184;9.722;2023-04-03T12:55:02;21.40;42.90
8188;DHT22;4135;49.184;9.722;2023-04-03T12:57:33;21.40;42.90
8188;DHT22;4135;49.184;9.722;2023-04-03T13:00:19;21.40;42.80
8188;DHT22;4135;49.184;9.722;2023-04-03T13:02:49;21.40;42.80
8188;DHT22;4135;49.184;9.722;2023-04-03T13:05:19;21.40;42.80
8188;DHT22;4135;49.184;9.722;2023-04-03T13:08:00;21.40;42.70
8188;DHT22;4135;49.184;9.722;2023-04-03T13:10:32;21.40;42.70
8188;DHT22;4135;49.184;9.722;2023-04-03T13:13:09;21.40;42.60
8188;DHT22;4135;49.184;9.722;2023-04-03T13:15:48;21.40;42.50
8188;DHT22;4135;49.184;9.722;2023-04-03T13:18:30;21.40;42.50
8188;DHT22;4135;49.184;9.722;2023-04-03T13:21:21;21.40;42.50
8188;DHT22;4135;49.184;9.722;2023-04-03T13:23:55;21.40;42.40
8188;DHT22;4135;49.184;9.722;2023-04-03T13:26:30;21.40;42.40
8188;DHT22;4135;49.184;9.722;2023-04-03T13:29:03;21.40;42.30
8188;DHT22;4135;49.184;9.722;2023-04-03T13:31:36;21.40;42.30
8188;DHT22;4135;49.184;9.722;2023-04-03T13:36:42;21.40;42.20
8188;DHT22;4135;49.184;9.722;2023-04-03T13:41:45;21.40;42.20
8188;DHT22;4135;49.184;9.722;2023-04-03T13:46:56;21.40;42.10
8188;DHT22;4135;49.184;9.722;2023-04-03T13:49:31;21.40;42.20
8188;DHT22;4135;49.184;9.722;2023-04-03T13:52:24;21.40;42.20
8188;DHT22;4135;49.184;9.722;2023-04-03T13:54:58;21.40;42.30
8188;DHT22;4135;49.184;9.722;2023-04-03T13:57:29;21.50;42.40
8188;DHT22;4135;49.184;9.722;2023-04-03T13:59:58;21.40;42.30
8188;DHT22;4135;49.184;9.722;2023-04-03T14:02:32;21.50;42.30
8188;DHT22;4135;49.184;9.722;2023-04-03T14:05:03;21.40;42.20
8188;DHT22;4135;49.184;9.722;2023-04-03T14:07:37;21.40;42.20
8188;DHT22;4135;49.184;9.722;2023-04-03T14:10:07;21.40;42.10
8188;DHT22;4135;49.184;9.722;2023-04-03T14:12:38;21.50;42.10
8188;DHT22;4135;49.184;9.722;2023-04-03T14:15:22;21.50;42.10
8188;DHT22;4135;49.184;9.722;2023-04-03T14:17:54;21.50;42.10
8188;DHT22;4135;49.184;9.722;2023-04-03T14:20:26;21.50;42.10
8188;DHT22;4135;49.184;9.722;2023-04-03T14:22:56;21.50;42.10
8188;DHT22;4135;49.184;9.722;2023-04-03T14:25:26;21.50;42.00
8188;DHT22;4135;49.184;9.722;2023-04-03T14:27:56;21.50;42.00
8188;DHT22;4135;49.184;9.722;2023-04-03T14:30:30;21.50;42.10
8188;DHT22;4135;49.184;9.722;2023-04-03T14:33:00;21.50;42.20
8188;DHT22;4135;49.184;9.722;2023-04-03T14:35:30;21.50;42.20
8188;DHT22;4135;49.184;9.722;2023-04-03T14:37:59;21.60;42.20
8188;DHT22;4135;49.184;9.722;2023-04-03T14:40:29;21.50;42.20
8188;DHT22;4135;49.184;9.722;2023-04-03T14:42:59;21.50;42.20
8188;DHT22;4135;49.184;9.722;2023-04-03T14:45:28;21.60;42.30
8188;DHT22;4135;49.184;9.722;2023-04-03T14:47:59;21.60;42.20
8188;DHT22;4135;49.184;9.722;2023-04-03T14:50:28;21.60;42.20
8188;DHT22;4135;49.184;9.722;2023-04-03T14:52:58;21.60;42.20
8188;DHT22;4135;49.184;9.722;2023-04-03T14:55:28;21.60;42.10
8188;DHT22;4135;49.184;9.722;2023-04-03T14:57:57;21.60;42.00
8188;DHT22;4135;49.184;9.722;2023-04-03T15:00:27;21.50;41.80
8188;DHT22;4135;49.184;9.722;2023-04-03T15:02:57;21.60;41.80
8188;DHT22;4135;49.184;9.722;2023-04-03T15:05:26;21.60;41.80
8188;DHT22;4135;49.184;9.722;2023-04-03T15:07:57;21.60;41.80
8188;DHT22;4135;49.184;9.722;2023-04-03T15:10:30;21.60;41.80
8188;DHT22;4135;49.184;9.722;2023-04-03T15:13:00;21.50;41.40
8188;DHT22;4135;49.184;9.722;2023-04-03T15:15:30;21.40;41.30
8188;DHT22;4135;49.184;9.722;2023-04-03T15:17:59;21.40;41.00
8188;DHT22;4135;49.184;9.722;2023-04-03T15:20:29;21.40;40.80
8188;DHT22;4135;49.184;9.722;2023-04-03T15:23:00;21.40;40.60
8188;DHT22;4135;49.184;9.722;2023-04-03T15:25:31;21.40;40.50
8188;DHT22;4135;49.184;9.722;2023-04-03T15:28:01;21.50;40.50
8188;DHT22;4135;49.184;9.722;2023-04-03T15:30:31;21.50;40.40
8188;DHT22;4135;49.184;9.722;2023-04-03T15:33:00;21.50;40.50
8188;DHT22;4135;49.184;9.722;2023-04-03T15:35:30;21.60;40.50
8188;DHT22;4135;49.184;9.722;2023-04-03T15:37:59;21.50;40.30
8188;DHT22;4135;49.184;9.722;2023-04-03T15:40:29;21.50;40.20
8188;DHT22;4135;49.184;9.722;2023-04-03T15:42:58;21.50;40.10
8188;DHT22;4135;49.184;9.722;2023-04-03T15:45:29;21.50;40.00
8188;DHT22;4135;49.184;9.722;2023-04-03T15:47:59;21.50;39.90
8188;DHT22;4135;49.184;9.722;2023-04-03T15:50:29;21.50;39.80
8188;DHT22;4135;49.184;9.722;2023-04-03T15:52:59;21.50;39.80
8188;DHT22;4135;49.184;9.722;2023-04-03T15:55:30;21.50;39.80
8188;DHT22;4135;49.184;9.722;2023-04-03T15:58:00;21.50;39.80
8188;DHT22;4135;49.184;9.722;2023-04-03T16:00:31;21.50;39.80
8188;DHT22;4135;49.184;9.722;2023-04-03T16:03:09;21.50;39.80
8188;DHT22;4135;49.184;9.722;2023-04-03T16:05:39;21.40;39.60
8188;DHT22;4135;49.184;9.722;2023-04-03T16:08:09;21.40;39.50
8188;DHT22;4135;49.184;9.722;2023-04-03T16:10:39;21.40;39.40
8188;DHT22;4135;49.184;9.722;2023-04-03T16:13:09;21.40;39.40
8188;DHT22;4135;49.184;9.722;2023-04-03T16:15:39;21.50;39.50
8188;DHT22;4135;49.184;9.722;2023-04-03T16:18:09;21.50;39.50
8188;DHT22;4135;49.184;9.722;2023-04-03T16:20:39;21.50;39.50
8188;DHT22;4135;49.184;9.722;2023-04-03T16:23:09;21.60;39.80
8188;DHT22;4135;49.184;9.722;2023-04-03T16:25:39;21.60;39.90
8188;DHT22;4135;49.184;9.722;2023-04-03T16:28:08;21.60;40.00
8188;DHT22;4135;49.184;9.722;2023-04-03T16:30:43;21.60;40.10
8188;DHT22;4135;49.184;9.722;2023-04-03T16:33:13;21.60;40.20
8188;DHT22;4135;49.184;9.722;2023-04-03T16:35:43;21.80;40.60
8188;DHT22;4135;49.184;9.722;2023-04-03T16:38:13;21.70;40.70
8188;DHT22;4135;49.184;9.722;2023-04-03T16:40:43;21.70;40.80
8188;DHT22;4135;49.184;9.722;2023-04-03T16:43:12;21.70;41.60
8188;DHT22;4135;49.184;9.722;2023-04-03T16:45:42;21.70;41.20
8188;DHT22;4135;49.184;9.722;2023-04-03T16:48:11;21.70;41.30
8188;DHT22;4135;49.184;9.722;2023-04-03T16:50:46;21.70;41.50
8188;DHT22;4135;49.184;9.722;2023-04-03T16:53:17;21.70;41.70
8188;DHT22;4135;49.184;9.722;2023-04-03T16:55:47;21.70;41.80
8188;DHT22;4135;49.184;9.722;2023-04-03T16:58:17;21.70;41.90
8188;DHT22;4135;49.184;9.722;2023-04-03T17:00:46;21.60;41.80
8188;DHT22;4135;49.184;9.722;2023-04-03T17:03:16;21.70;42.00
8188;DHT22;4135;49.184;9.722;2023-04-03T17:05:49;21.70;42.20
8188;DHT22;4135;49.184;9.722;2023-04-03T17:08:18;21.70;42.30
8188;DHT22;4135;49.184;9.722;2023-04-03T17:10:48;21.70;42.50
8188;DHT22;4135;49.184;9.722;2023-04-03T17:13:19;21.70;42.60
8188;DHT22;4135;49.184;9.722;2023-04-03T17:15:49;21.70;42.80
8188;DHT22;4135;49.184;9.722;2023-04-03T17:18:18;21.70;42.90
8188;DHT22;4135;49.184;9.722;2023-04-03T17:20:48;21.70;43.10
8188;DHT22;4135;49.184;9.722;2023-04-03T17:23:17;21.80;43.30
8188;DHT22;4135;49.184;9.722;2023-04-03T17:25:47;21.70;43.30
8188;DHT22;4135;49.184;9.722;2023-04-03T17:28:17;21.70;43.40
8188;DHT22;4135;49.184;9.722;2023-04-03T17:30:47;21.70;43.50
8188;DHT22;4135;49.184;9.722;2023-04-03T17:33:16;21.70;43.60
8188;DHT22;4135;49.184;9.722;2023-04-03T17:35:46;21.60;43.50
8188;DHT22;4135;49.184;9.722;2023-04-03T17:38:16;21.50;43.30
8188;DHT22;4135;49.184;9.722;2023-04-03T17:40:45;21.60;43.10
8188;DHT22;4135;49.184;9.722;2023-04-03T17:43:15;21.50;43.50
8188;DHT22;4135;49.184;9.722;2023-04-03T17:45:45;21.40;42.70
8188;DHT22;4135;49.184;9.722;2023-04-03T17:48:14;21.50;42.50
8188;DHT22;4135;49.184;9.722;2023-04-03T17:50:44;21.40;42.40
8188;DHT22;4135;49.184;9.722;2023-04-03T17:53:14;21.50;42.40
8188;DHT22;4135;49.184;9.722;2023-04-03T17:55:43;21.40;42.30
8188;DHT22;4135;49.184;9.722;2023-04-03T17:58:14;21.40;42.20
8188;DHT22;4135;49.184;9.722;2023-04-03T18:00:44;21.50;42.30
8188;DHT22;4135;49.184;9.722;2023-04-03T18:03:14;21.50;42.20
8188;DHT22;4135;49.184;9.722;2023-04-03T18:05:44;21.50;42.20
8188;DHT22;4135;49.184;9.722;2023-04-03T18:08:13;21.50;42.10
8188;DHT22;4135;49.184;9.722;2023-04-03T18:10:43;21.40;42.10
8188;DHT22;4135;49.184;9.722;2023-04-03T18:13:12;21.40;42.10